Roselawn, Indiana
Current Conditions -  °F | °C
As of 2:35 PM on Monday 24 Nov 2014 (Local Time) from KRZL Reporting Station
Overcast Overcast  
Wind Chill: 21°   Ceiling: 1900
Heat Index: 34°   Visibility: 10mi
Dew Point: 32°   Wind: 24mph
Humidity: 93%   Direction: 240°WSW
Pressure: 29.59"   Gusts: 35mph
Location:  41.14°N, 87.31°W
Report Text: KRZL 242035Z AUTO 24021G30KT 10SM OVC019 01/00 A2959 RMK AO2
Loading
Personal Weather Stations






























Interactive Weather Map New forecast layout! Learn more

10-Day Weather Forecast

Advertisements
Track Severe Weather on mobile